Wetterdaten: Woche 18.05.09 - 24.05.09 (KW21)
Datum Zeit Temperatur Luftfeuchte Luftdruck Niederschlag Windrichtung Wind
18.05.2009 00:00 15,1 C 80 % 1015,4 hPa 0,2 l/m W-SW 7,1 km/h (2 Bft)
18.05.2009 01:00 14,1 C 89 % 1016,5 hPa 0,8 l/m W-NW 13,2 km/h (3 Bft)
18.05.2009 02:00 12,9 C 87 % 1017,0 hPa 0,4 l/m N-NW 13,8 km/h (3 Bft)
18.05.2009 03:00 12,1 C 89 % 1017,8 hPa 1,2 l/m W-SW 7,4 km/h (2 Bft)
18.05.2009 04:00 11,6 C 95 % 1018,1 hPa 2,2 l/m S-SW 11,3 km/h (2 Bft)
18.05.2009 05:00 11,3 C 96 % 1018,1 hPa 2,2 l/m SW 13,0 km/h (3 Bft)
18.05.2009 06:00 11,0 C 96 % 1018,1 hPa 0,4 l/m SW 7,8 km/h (2 Bft)
18.05.2009 07:00 11,2 C 96 % 1018,0 hPa 0,0 l/m S 4,9 km/h (1 Bft)
18.05.2009 08:00 12,2 C 92 % 1018,1 hPa 0,0 l/m W 4,4 km/h (1 Bft)
18.05.2009 09:00 13,0 C 87 % 1018,3 hPa 0,0 l/m W-NW 7,1 km/h (2 Bft)
18.05.2009 10:00 13,6 C 83 % 1018,4 hPa 0,0 l/m W-NW 6,7 km/h (2 Bft)
18.05.2009 11:00 15,3 C 76 % 1018,6 hPa 0,0 l/m W-SW 10,9 km/h (2 Bft)
18.05.2009 12:00 15,6 C 71 % 1018,7 hPa 0,0 l/m W-SW 10,6 km/h (2 Bft)
18.05.2009 13:00 15,6 C 67 % 1018,7 hPa 0,0 l/m W 12,8 km/h (3 Bft)
18.05.2009 14:00 14,6 C 68 % 1018,9 hPa 0,2 l/m W-SW 10,7 km/h (2 Bft)
18.05.2009 15:00 14,3 C 72 % 1019,2 hPa 0,0 l/m W 6,4 km/h (2 Bft)
18.05.2009 16:00 14,6 C 76 % 1019,4 hPa 0,0 l/m W 7,0 km/h (2 Bft)
18.05.2009 17:00 15,0 C 76 % 1019,5 hPa 0,0 l/m W 6,1 km/h (2 Bft)
18.05.2009 18:00 15,1 C 76 % 1019,6 hPa 0,0 l/m SW 6,1 km/h (2 Bft)
18.05.2009 19:00 14,5 C 80 % 1019,9 hPa 0,0 l/m SW 12,6 km/h (3 Bft)
18.05.2009 20:00 13,3 C 84 % 1020,1 hPa 0,0 l/m SW 11,1 km/h (2 Bft)
18.05.2009 21:00 12,4 C 87 % 1020,6 hPa 0,0 l/m SW 4,3 km/h (1 Bft)
18.05.2009 22:00 11,4 C 91 % 1020,9 hPa 0,0 l/m N 1,3 km/h (1 Bft)
18.05.2009 23:00 10,2 C 93 % 1021,1 hPa 0,0 l/m N 0,8 km/h (0 Bft)
19.05.2009 00:00 9,2 C 96 % 1021,0 hPa 0,0 l/m N-NW 1,2 km/h (1 Bft)
19.05.2009 01:00 8,7 C 95 % 1020,9 hPa 0,0 l/m NW 2,8 km/h (1 Bft)
19.05.2009 02:00 8,6 C 96 % 1021,0 hPa 0,0 l/m N 3,7 km/h (1 Bft)
19.05.2009 03:00 8,6 C 97 % 1021,2 hPa 0,0 l/m N-NW 3,5 km/h (1 Bft)
19.05.2009 04:00 7,9 C 96 % 1020,8 hPa 0,0 l/m N-NW 0,9 km/h (0 Bft)
19.05.2009 05:00 7,2 C 97 % 1020,6 hPa 0,0 l/m N-NW 2,8 km/h (1 Bft)
19.05.2009 06:00 7,7 C 98 % 1020,7 hPa 0,0 l/m N-NW 1,2 km/h (1 Bft)
19.05.2009 07:00 9,7 C 96 % 1020,8 hPa 0,0 l/m N-NW 5,2 km/h (1 Bft)
19.05.2009 08:00 12,3 C 87 % 1021,0 hPa 0,0 l/m N-NO 6,8 km/h (2 Bft)
19.05.2009 09:00 15,4 C 74 % 1020,9 hPa 0,0 l/m O-SO 12,8 km/h (3 Bft)
19.05.2009 10:00 17,0 C 66 % 1020,9 hPa 0,0 l/m O-SO 16,2 km/h (3 Bft)
19.05.2009 11:00 18,2 C 65 % 1020,7 hPa 0,0 l/m O-SO 14,9 km/h (3 Bft)
19.05.2009 12:00 19,2 C 62 % 1020,2 hPa 0,0 l/m O-SO 12,9 km/h (3 Bft)
19.05.2009 13:00 19,2 C 61 % 1020,0 hPa 0,0 l/m O-NO 10,8 km/h (2 Bft)
19.05.2009 14:00 20,5 C 57 % 1019,6 hPa 0,0 l/m NO 9,8 km/h (2 Bft)
19.05.2009 15:00 21,1 C 54 % 1019,1 hPa 0,0 l/m NO 9,7 km/h (2 Bft)
19.05.2009 16:00 21,2 C 51 % 1018,8 hPa 0,0 l/m NO 8,6 km/h (2 Bft)
19.05.2009 17:00 21,2 C 50 % 1018,6 hPa 0,0 l/m O-SO 5,9 km/h (2 Bft)
19.05.2009 18:00 21,5 C 50 % 1018,5 hPa 0,0 l/m O-SO 6,8 km/h (2 Bft)
19.05.2009 19:00 21,0 C 53 % 1018,7 hPa 0,0 l/m SO 9,4 km/h (2 Bft)
19.05.2009 20:00 18,2 C 69 % 1018,9 hPa 0,0 l/m SO 2,0 km/h (1 Bft)
19.05.2009 21:00 15,2 C 81 % 1019,4 hPa 0,0 l/m N 0,1 km/h (0 Bft)
19.05.2009 22:00 13,6 C 85 % 1020,0 hPa 0,0 l/m N 0,0 km/h (0 Bft)
19.05.2009 23:00 12,9 C 83 % 1020,3 hPa 0,0 l/m NW 3,3 km/h (1 Bft)
20.05.2009 00:00 11,7 C 87 % 1020,4 hPa 0,0 l/m N 0,3 km/h (0 Bft)
20.05.2009 01:00 10,8 C 90 % 1020,6 hPa 0,0 l/m N 0,0 km/h (0 Bft)
20.05.2009 02:00 10,0 C 92 % 1020,6 hPa 0,0 l/m N 0,1 km/h (0 Bft)
20.05.2009 03:00 9,6 C 94 % 1020,5 hPa 0,0 l/m N 0,0 km/h (0 Bft)
20.05.2009 04:00 9,1 C 94 % 1020,5 hPa 0,0 l/m N 0,0 km/h (0 Bft)
20.05.2009 05:00 8,5 C 95 % 1020,3 hPa 0,0 l/m N 0,0 km/h (0 Bft)
20.05.2009 06:00 8,9 C 95 % 1020,4 hPa 0,0 l/m N 0,1 km/h (0 Bft)
20.05.2009 07:00 11,7 C 88 % 1020,4 hPa 0,0 l/m S 1,9 km/h (1 Bft)
20.05.2009 08:00 15,1 C 72 % 1020,6 hPa 0,0 l/m S-SO 4,7 km/h (1 Bft)
20.05.2009 09:00 18,5 C 61 % 1020,8 hPa 0,0 l/m S 9,7 km/h (2 Bft)
20.05.2009 10:00 20,5 C 57 % 1020,6 hPa 0,0 l/m SW 8,2 km/h (2 Bft)
20.05.2009 11:00 23,0 C 44 % 1020,1 hPa 0,0 l/m O 10,3 km/h (2 Bft)
20.05.2009 12:00 24,4 C 32 % 1019,6 hPa 0,0 l/m SO 14,8 km/h (3 Bft)
20.05.2009 13:00 25,2 C 26 % 1019,0 hPa 0,0 l/m S-SO 12,9 km/h (3 Bft)
20.05.2009 14:00 25,7 C 27 % 1018,4 hPa 0,0 l/m SW 12,2 km/h (2 Bft)
20.05.2009 15:00 25,7 C 27 % 1017,8 hPa 0,0 l/m SW 10,9 km/h (2 Bft)
20.05.2009 16:00 25,7 C 27 % 1017,4 hPa 0,0 l/m W-SW 9,3 km/h (2 Bft)
20.05.2009 17:00 25,8 C 28 % 1017,0 hPa 0,0 l/m W-SW 13,5 km/h (3 Bft)
20.05.2009 18:00 25,2 C 28 % 1016,5 hPa 0,0 l/m W 9,8 km/h (2 Bft)
20.05.2009 19:00 23,9 C 35 % 1016,4 hPa 0,0 l/m W 6,7 km/h (2 Bft)
20.05.2009 20:00 20,2 C 54 % 1016,3 hPa 0,0 l/m N 1,2 km/h (1 Bft)
20.05.2009 21:00 17,2 C 62 % 1016,3 hPa 0,0 l/m N 0,3 km/h (0 Bft)
20.05.2009 22:00 15,7 C 67 % 1016,2 hPa 0,0 l/m N 1,7 km/h (1 Bft)
20.05.2009 23:00 14,6 C 72 % 1016,0 hPa 0,0 l/m N 0,0 km/h (0 Bft)
21.05.2009 00:00 13,6 C 75 % 1015,7 hPa 0,0 l/m N 0,0 km/h (0 Bft)
21.05.2009 01:00 12,8 C 78 % 1015,3 hPa 0,0 l/m N 0,4 km/h (0 Bft)
21.05.2009 02:00 12,1 C 82 % 1014,8 hPa 0,0 l/m N 0,0 km/h (0 Bft)
21.05.2009 03:00 11,6 C 85 % 1014,5 hPa 0,0 l/m N 0,0 km/h (0 Bft)
21.05.2009 04:00 11,3 C 87 % 1014,1 hPa 0,0 l/m N 0,0 km/h (0 Bft)
21.05.2009 05:00 11,3 C 88 % 1013,5 hPa 0,0 l/m N 0,3 km/h (0 Bft)
21.05.2009 06:00 11,8 C 85 % 1013,7 hPa 0,0 l/m O 2,4 km/h (1 Bft)
21.05.2009 07:00 14,4 C 76 % 1014,4 hPa 0,0 l/m W-SW 6,2 km/h (2 Bft)
21.05.2009 08:00 17,2 C 62 % 1014,9 hPa 0,0 l/m W 12,3 km/h (3 Bft)
21.05.2009 09:00 17,6 C 67 % 1015,0 hPa 0,0 l/m SO 8,3 km/h (2 Bft)
21.05.2009 10:00 19,2 C 67 % 1014,6 hPa 0,0 l/m S-SW 13,0 km/h (3 Bft)
21.05.2009 11:00 19,6 C 67 % 1014,4 hPa 0,0 l/m SW 12,4 km/h (3 Bft)
21.05.2009 12:00 20,8 C 63 % 1013,9 hPa 0,0 l/m S-SW 10,9 km/h (2 Bft)
21.05.2009 13:00 23,4 C 53 % 1013,3 hPa 0,0 l/m W-SW 14,4 km/h (3 Bft)
21.05.2009 14:00 24,9 C 44 % 1012,6 hPa 0,0 l/m W-SW 16,8 km/h (3 Bft)
21.05.2009 15:00 26,0 C 41 % 1011,6 hPa 0,0 l/m S-SW 18,6 km/h (3 Bft)
21.05.2009 16:00 25,9 C 40 % 1010,9 hPa 0,0 l/m W-SW 21,6 km/h (4 Bft)
21.05.2009 17:00 22,6 C 51 % 1011,6 hPa 0,0 l/m N 20,9 km/h (4 Bft)
21.05.2009 18:00 19,3 C 70 % 1011,8 hPa 0,0 l/m N-NW 16,5 km/h (3 Bft)
21.05.2009 19:00 18,5 C 76 % 1012,0 hPa 0,0 l/m N 11,7 km/h (2 Bft)
21.05.2009 20:00 17,7 C 80 % 1012,3 hPa 0,0 l/m N-NO 4,9 km/h (1 Bft)
21.05.2009 21:00 16,7 C 83 % 1012,5 hPa 0,0 l/m N-NO 1,9 km/h (1 Bft)
21.05.2009 22:00 16,3 C 86 % 1013,1 hPa 0,0 l/m N-NO 2,7 km/h (1 Bft)
21.05.2009 23:00 15,3 C 91 % 1014,2 hPa 5,8 l/m SW 7,2 km/h (2 Bft)
22.05.2009 00:00 14,3 C 94 % 1014,5 hPa 3,6 l/m W 5,8 km/h (1 Bft)
22.05.2009 01:00 14,0 C 95 % 1013,8 hPa 0,8 l/m S-SO 9,6 km/h (2 Bft)
22.05.2009 02:00 13,7 C 95 % 1012,9 hPa 0,4 l/m SO 3,1 km/h (1 Bft)
22.05.2009 03:00 13,4 C 97 % 1012,2 hPa 0,4 l/m SO 2,1 km/h (1 Bft)
22.05.2009 04:00 13,4 C 96 % 1012,7 hPa 1,8 l/m NO 7,5 km/h (2 Bft)
22.05.2009 05:00 13,3 C 97 % 1012,7 hPa 1,2 l/m NW 5,2 km/h (1 Bft)
22.05.2009 06:00 13,2 C 97 % 1012,7 hPa 1,2 l/m S-SW 9,4 km/h (2 Bft)
22.05.2009 07:00 13,4 C 97 % 1012,9 hPa 1,4 l/m SW 14,2 km/h (3 Bft)
22.05.2009 08:00 13,8 C 96 % 1013,1 hPa 2,6 l/m SW 16,8 km/h (3 Bft)
22.05.2009 09:00 14,4 C 96 % 1013,2 hPa 0,2 l/m W-SW 11,0 km/h (2 Bft)
22.05.2009 10:00 16,4 C 91 % 1013,1 hPa 0,0 l/m W-SW 13,2 km/h (3 Bft)
22.05.2009 11:00 18,3 C 87 % 1013,4 hPa 0,0 l/m W-SW 14,8 km/h (3 Bft)
22.05.2009 12:00 19,2 C 80 % 1013,7 hPa 0,0 l/m W 19,8 km/h (4 Bft)
22.05.2009 13:00 19,8 C 76 % 1013,8 hPa 0,0 l/m W-SW 19,6 km/h (3 Bft)
22.05.2009 14:00 20,6 C 72 % 1013,8 hPa 0,0 l/m W-SW 22,0 km/h (4 Bft)
22.05.2009 15:00 20,7 C 71 % 1013,9 hPa 0,0 l/m W-SW 21,0 km/h (4 Bft)
22.05.2009 16:00 20,9 C 65 % 1014,1 hPa 0,2 l/m W-NW 18,1 km/h (3 Bft)
22.05.2009 17:00 22,0 C 57 % 1014,1 hPa 0,0 l/m W-NW 22,4 km/h (4 Bft)
22.05.2009 18:00 22,0 C 55 % 1014,1 hPa 0,0 l/m W-NW 16,3 km/h (3 Bft)
22.05.2009 19:00 20,9 C 55 % 1014,5 hPa 0,0 l/m NW 12,8 km/h (3 Bft)
22.05.2009 20:00 18,8 C 64 % 1015,5 hPa 0,0 l/m N 7,9 km/h (2 Bft)
22.05.2009 21:00 16,4 C 75 % 1016,4 hPa 0,0 l/m N-NW 4,7 km/h (1 Bft)
22.05.2009 22:00 14,5 C 82 % 1017,2 hPa 0,0 l/m N-NW 4,1 km/h (1 Bft)
22.05.2009 23:00 12,8 C 88 % 1017,5 hPa 0,0 l/m N-NW 2,8 km/h (1 Bft)
23.05.2009 00:00 11,4 C 92 % 1017,8 hPa 0,0 l/m NW 1,3 km/h (1 Bft)
23.05.2009 01:00 10,9 C 93 % 1017,8 hPa 0,0 l/m N-NW 2,4 km/h (1 Bft)
23.05.2009 02:00 10,0 C 95 % 1017,8 hPa 0,0 l/m N 1,5 km/h (1 Bft)
23.05.2009 03:00 9,7 C 95 % 1017,7 hPa 0,0 l/m N 1,3 km/h (1 Bft)
23.05.2009 04:00 9,2 C 93 % 1017,4 hPa 0,0 l/m N-NW 2,5 km/h (1 Bft)
23.05.2009 05:00 8,9 C 94 % 1017,6 hPa 0,0 l/m N-NW 5,2 km/h (1 Bft)
23.05.2009 06:00 9,6 C 92 % 1017,8 hPa 0,0 l/m N-NW 1,5 km/h (1 Bft)
23.05.2009 07:00 11,6 C 83 % 1018,1 hPa 0,0 l/m N-NO 4,8 km/h (1 Bft)
23.05.2009 08:00 14,1 C 70 % 1018,2 hPa 0,0 l/m NO 8,6 km/h (2 Bft)
23.05.2009 09:00 16,5 C 54 % 1018,2 hPa 0,0 l/m O 11,6 km/h (2 Bft)
23.05.2009 10:00 18,3 C 48 % 1018,1 hPa 0,0 l/m O-NO 11,4 km/h (2 Bft)
23.05.2009 11:00 19,9 C 49 % 1017,7 hPa 0,0 l/m O-NO 13,8 km/h (3 Bft)
23.05.2009 12:00 21,2 C 49 % 1017,2 hPa 0,0 l/m NO 17,2 km/h (3 Bft)
23.05.2009 13:00 22,2 C 47 % 1017,0 hPa 0,0 l/m O-SO 15,2 km/h (3 Bft)
23.05.2009 14:00 23,2 C 42 % 1016,6 hPa 0,0 l/m NO 12,8 km/h (3 Bft)
23.05.2009 15:00 23,9 C 42 % 1016,2 hPa 0,0 l/m NO 13,7 km/h (3 Bft)
23.05.2009 16:00 24,5 C 41 % 1015,9 hPa 0,0 l/m O-NO 13,4 km/h (3 Bft)
23.05.2009 17:00 24,5 C 40 % 1015,5 hPa 0,0 l/m O-NO 13,2 km/h (3 Bft)
23.05.2009 18:00 23,9 C 40 % 1015,5 hPa 0,0 l/m O-SO 13,2 km/h (3 Bft)
23.05.2009 19:00 22,7 C 46 % 1015,8 hPa 0,0 l/m O-NO 9,7 km/h (2 Bft)
23.05.2009 20:00 21,2 C 51 % 1015,9 hPa 0,0 l/m O-NO 6,5 km/h (2 Bft)
23.05.2009 21:00 19,4 C 61 % 1016,3 hPa 0,0 l/m NO 2,8 km/h (1 Bft)
23.05.2009 22:00 17,6 C 70 % 1016,2 hPa 0,0 l/m N 0,7 km/h (0 Bft)
23.05.2009 23:00 16,5 C 74 % 1015,8 hPa 0,0 l/m NO 1,3 km/h (1 Bft)
24.05.2009 00:00 15,6 C 77 % 1015,3 hPa 0,0 l/m N 1,3 km/h (1 Bft)
24.05.2009 01:00 15,1 C 81 % 1015,2 hPa 0,0 l/m N 0,8 km/h (0 Bft)
24.05.2009 02:00 15,2 C 81 % 1015,2 hPa 0,0 l/m N 1,5 km/h (1 Bft)
24.05.2009 03:00 14,8 C 86 % 1015,3 hPa 0,0 l/m N 1,5 km/h (1 Bft)
24.05.2009 04:00 15,0 C 86 % 1015,4 hPa 0,0 l/m N 0,1 km/h (0 Bft)
24.05.2009 05:00 15,0 C 87 % 1015,8 hPa 0,0 l/m N 0,3 km/h (0 Bft)
24.05.2009 06:00 15,0 C 88 % 1016,1 hPa 0,0 l/m NO 2,1 km/h (1 Bft)
24.05.2009 07:00 15,3 C 92 % 1016,4 hPa 1,6 l/m SW 6,0 km/h (2 Bft)
24.05.2009 08:00 17,1 C 89 % 1016,6 hPa 0,0 l/m SW 9,9 km/h (2 Bft)
24.05.2009 09:00 18,8 C 85 % 1017,1 hPa 0,0 l/m SO 5,6 km/h (1 Bft)
24.05.2009 10:00 20,3 C 82 % 1017,1 hPa 0,0 l/m SO 4,9 km/h (1 Bft)
24.05.2009 11:00 21,6 C 77 % 1017,1 hPa 0,0 l/m SO 8,6 km/h (2 Bft)
24.05.2009 12:00 22,7 C 74 % 1017,0 hPa 0,0 l/m SO 8,4 km/h (2 Bft)
24.05.2009 13:00 24,9 C 69 % 1017,0 hPa 0,0 l/m O-SO 6,5 km/h (2 Bft)
24.05.2009 14:00 27,0 C 58 % 1016,7 hPa 0,0 l/m SW 12,1 km/h (2 Bft)
24.05.2009 15:00 27,2 C 54 % 1016,5 hPa 0,0 l/m W 10,7 km/h (2 Bft)
24.05.2009 16:00 23,6 C 66 % 1016,6 hPa 0,2 l/m W 13,4 km/h (3 Bft)
24.05.2009 17:00 22,4 C 57 % 1016,7 hPa 0,2 l/m W 18,6 km/h (3 Bft)
24.05.2009 18:00 26,0 C 46 % 1016,3 hPa 0,0 l/m W-SW 15,3 km/h (3 Bft)
24.05.2009 19:00 25,1 C 51 % 1015,9 hPa 0,0 l/m W-SW 7,5 km/h (2 Bft)
24.05.2009 20:00 21,9 C 73 % 1015,8 hPa 0,0 l/m N 1,2 km/h (1 Bft)
24.05.2009 21:00 19,2 C 78 % 1016,4 hPa 0,0 l/m N 1,5 km/h (1 Bft)
24.05.2009 22:00 17,6 C 83 % 1016,9 hPa 0,0 l/m N-NW 2,1 km/h (1 Bft)
24.05.2009 23:00 17,4 C 88 % 1017,3 hPa 0,0 l/m N-NW 3,3 km/h (1 Bft)
Min-Datum _ 19.05.09 20.05.09 21.05.09 - - 18.05.09
_ Min-Zeit 05:05 13:40 16:40 - - 21:45
Minimum _ 7,2 C 24 % 1010,6 hPa - - 0,0 km/h (0 Bft)
Max-Datum _ 24.05.09 19.05.09 18.05.09 21.05.09 - 21.05.09
_ Max-Zeit 15:15 00:40 23:35 23:10 - 16:15
Maximum _ 28,5 C 100 % 1021,3 hPa 5,8 l/m - 33,8 km/h
SW (5 Bft)
Durchschnitt _ 16,7 C 73 % 1016,9 hPa #29,2 l/m SW 7,7 km/h (2 Bft)